Time;durP1;ratioP1;P1;durP2;ratioP2;P2;SDS_P1;SDS_P2;PMS_P1;PMS_P2;Temp;Humidity;BMP_temperature;BMP_pressure;BME280_temperature;BME280_humidity;BME280_pressure;Samples;Min_cycle;Max_cycle;Signal;HPM_P1;HPM_P2
2022/01/06 00:00:09;;;;;;;37.42;33.35;;;;;;;8.09;79.14;99583.00;4997730;28;20054;-71
2022/01/06 00:02:35;;;;;;;35.35;30.63;;;;;;;7.99;78.70;99589.16;4997308;28;20460;-74
2022/01/06 00:05:01;;;;;;;40.55;32.78;;;;;;;7.85;78.77;99586.56;4996693;28;20058;-75
2022/01/06 00:07:28;;;;;;;39.17;33.42;;;;;;;7.57;78.97;99564.88;4997013;28;20068;-75
2022/01/06 00:09:53;;;;;;;40.60;33.53;;;;;;;7.31;79.67;99557.94;4999936;28;20766;-74
2022/01/06 00:12:23;;;;;;;42.15;32.47;;;;;;;7.46;79.64;99572.69;5000861;28;20057;-73
2022/01/06 00:15:05;;;;;;;46.10;32.90;;;;;;;7.50;79.60;99582.28;4999628;28;20425;-75
2022/01/06 00:25:29;;;;;;;44.03;30.23;;;;;;;7.06;80.01;99572.72;4998754;28;20453;-75
2022/01/06 00:27:54;;;;;;;37.95;31.02;;;;;;;7.14;80.66;99573.59;4999876;28;20057;-78
2022/01/06 00:30:20;;;;;;;41.17;32.25;;;;;;;7.23;80.04;99588.34;5000594;28;20046;-74
2022/01/06 00:32:45;;;;;;;41.58;30.70;;;;;;;7.33;80.29;99579.69;4999107;28;20080;-73
2022/01/06 00:35:10;;;;;;;41.63;32.67;;;;;;;7.70;80.07;99573.53;4999519;28;20053;-73
2022/01/06 00:37:36;;;;;;;42.58;32.72;;;;;;;7.58;79.14;99574.44;4999332;28;20054;-73
2022/01/06 00:40:01;;;;;;;43.58;33.03;;;;;;;7.23;80.25;99580.53;4999863;28;20053;-72
2022/01/06 00:42:27;;;;;;;39.92;31.77;;;;;;;7.28;80.30;99580.53;5000635;28;20050;-72
2022/01/06 00:44:52;;;;;;;50.72;34.80;;;;;;;7.15;81.42;99566.63;4998004;28;20087;-77
2022/01/06 00:47:20;;;;;;;39.70;32.80;;;;;;;7.19;80.81;99571.00;4999985;28;20462;-75
2022/01/06 00:49:46;;;;;;;43.75;33.42;;;;;;;7.42;80.22;99577.91;5000084;28;20101;-75
2022/01/06 00:52:12;;;;;;;37.15;32.90;;;;;;;7.54;80.39;99588.38;5000473;28;20049;-75
2022/01/06 00:54:38;;;;;;;38.72;31.77;;;;;;;7.44;79.79;99563.13;4999469;28;20041;-74
2022/01/06 00:57:04;;;;;;;47.65;32.50;;;;;;;7.45;79.76;99570.97;5000428;28;20087;-74
2022/01/06 00:59:30;;;;;;;43.75;32.78;;;;;;;7.18;80.27;99577.06;5001232;28;20045;-74
2022/01/06 01:01:55;;;;;;;46.05;34.30;;;;;;;7.31;81.32;99573.59;4999901;28;20528;-74
2022/01/06 01:04:21;;;;;;;49.15;33.17;;;;;;;7.44;80.83;99573.56;5000347;28;20053;-74
2022/01/06 01:06:46;;;;;;;39.47;31.45;;;;;;;7.40;80.51;99567.50;5000101;28;20050;-75
2022/01/06 01:09:12;;;;;;;41.67;32.25;;;;;;;7.48;79.96;99602.28;4998683;28;20081;-75
2022/01/06 01:11:38;;;;;;;44.78;34.60;;;;;;;7.09;81.30;99567.47;4999350;28;20037;-75
2022/01/06 01:14:18;;;;;;;50.20;34.60;;;;;;;7.04;81.08;99563.16;4999227;28;20525;-75
2022/01/06 01:16:53;;;;;;;45.05;33.63;;;;;;;7.12;81.07;99583.16;4994620;28;20061;-80
2022/01/06 01:19:19;;;;;;;45.78;33.20;;;;;;;7.03;81.29;99590.97;4998950;28;20489;-78
2022/01/06 01:21:45;;;;;;;46.85;33.50;;;;;;;7.28;80.93;99570.09;4997744;28;20046;-75
2022/01/06 01:24:10;;;;;;;40.83;33.88;;;;;;;7.36;80.21;99589.25;4997944;28;20406;-74
2022/01/06 01:26:36;;;;;;;41.08;35.28;;;;;;;7.04;80.46;99582.28;4998450;28;20116;-74
2022/01/06 01:29:02;;;;;;;42.85;34.70;;;;;;;7.09;80.18;99577.06;4999405;28;20548;-73
2022/01/06 01:31:32;;;;;;;45.35;35.75;;;;;;;6.96;80.38;99584.88;4998082;28;20444;-74
2022/01/06 01:34:00;;;;;;;47.17;34.33;;;;;;;7.08;81.02;99583.16;4997980;28;20116;-74
2022/01/06 01:36:26;;;;;;;48.85;33.38;;;;;;;7.18;80.32;99590.09;4998844;28;20648;-75
2022/01/06 01:38:52;;;;;;;52.20;37.00;;;;;;;6.86;80.52;99569.19;4999891;28;20109;-73
2022/01/06 01:41:17;;;;;;;44.95;36.55;;;;;;;6.94;80.81;99577.91;5000088;28;20036;-74
2022/01/06 01:43:46;;;;;;;46.65;34.10;;;;;;;6.66;81.28;99563.97;4997287;28;20057;-74
2022/01/06 01:46:15;;;;;;;46.28;33.92;;;;;;;6.75;81.55;99579.63;4998835;28;20051;-75
2022/01/06 01:48:46;;;;;;;51.22;34.40;;;;;;;6.93;81.40;99589.19;4998812;28;20117;-73
2022/01/06 01:51:12;;;;;;;41.75;34.33;;;;;;;7.04;81.12;99576.19;4999035;28;20058;-74
2022/01/06 01:53:38;;;;;;;43.35;33.28;;;;;;;6.92;81.68;99585.72;5000022;28;20461;-74
2022/01/06 01:56:08;;;;;;;41.15;33.50;;;;;;;6.97;81.51;99563.13;4999537;28;20065;-76
2022/01/06 01:58:35;;;;;;;36.83;31.00;;;;;;;7.07;81.16;99573.56;4999240;28;20508;-75
2022/01/06 02:01:00;;;;;;;41.97;33.00;;;;;;;6.60;81.61;99563.94;4998050;28;20046;-73
2022/01/06 02:03:26;;;;;;;47.33;34.53;;;;;;;6.83;81.97;99566.59;4999213;28;20123;-73
2022/01/06 02:05:51;;;;;;;44.30;31.60;;;;;;;6.94;81.67;99563.13;4998205;28;20045;-73
2022/01/06 02:08:17;;;;;;;40.60;33.85;;;;;;;6.93;81.46;99584.00;4999196;28;20017;-74
2022/01/06 02:10:42;;;;;;;39.17;31.05;;;;;;;6.82;81.52;99572.69;4998590;28;20129;-73
2022/01/06 02:13:08;;;;;;;40.45;32.67;;;;;;;6.91;81.28;99565.75;4997315;28;20042;-73
2022/01/06 02:15:33;;;;;;;44.72;31.50;;;;;;;6.90;81.26;99570.97;4997097;28;20046;-74
2022/01/06 02:17:59;;;;;;;45.22;28.75;;;;;;;6.96;81.38;99577.06;4994573;28;20041;-75
2022/01/06 02:20:25;;;;;;;40.80;28.92;;;;;;;7.03;81.38;99587.50;4995505;28;20450;-75
2022/01/06 02:22:51;;;;;;;37.22;31.50;;;;;;;7.21;80.51;99587.53;4998457;28;20403;-74
2022/01/06 02:25:19;;;;;;;36.60;29.90;;;;;;;7.17;80.78;99602.28;4998892;28;20540;-75
2022/01/06 02:27:47;;;;;;;36.58;29.00;;;;;;;7.29;80.50;99592.72;4997027;28;20535;-74
2022/01/06 02:30:13;;;;;;;41.03;31.35;;;;;;;6.85;80.82;99568.34;4996769;28;20050;-74
2022/01/06 02:32:39;;;;;;;38.80;30.65;;;;;;;7.10;80.94;99586.63;4999189;28;20512;-74
2022/01/06 02:35:08;;;;;;;38.63;32.08;;;;;;;7.04;81.47;99584.00;4997566;28;20545;-74
2022/01/06 02:37:33;;;;;;;42.13;30.63;;;;;;;6.90;81.61;99584.84;4995021;28;20038;-75
2022/01/06 02:40:00;;;;;;;41.35;31.02;;;;;;;6.72;81.96;99572.69;4994518;28;20076;-74
2022/01/06 02:42:27;;;;;;;37.65;29.70;;;;;;;6.79;81.66;99584.00;4997494;28;20042;-74
2022/01/06 02:44:52;;;;;;;39.97;30.83;;;;;;;6.70;81.95;99561.38;4998013;28;20029;-73
2022/01/06 02:47:18;;;;;;;41.05;28.60;;;;;;;6.74;81.49;99583.09;4998401;28;20022;-74
2022/01/06 02:49:43;;;;;;;36.50;30.02;;;;;;;6.77;81.50;99593.56;4996694;28;20034;-77
2022/01/06 02:52:09;;;;;;;47.45;32.60;;;;;;;6.49;81.96;99571.75;4998586;28;20088;-77
2022/01/06 02:54:34;;;;;;;36.67;29.27;;;;;;;6.73;81.49;99591.78;4998844;28;20046;-74
2022/01/06 02:57:02;;;;;;;35.95;27.73;;;;;;;6.80;81.60;99598.75;4997789;28;20048;-74
2022/01/06 02:59:27;;;;;;;36.38;29.17;;;;;;;6.69;80.92;99595.25;4998951;28;20679;-73
2022/01/06 03:01:52;;;;;;;38.65;30.77;;;;;;;6.42;81.71;99588.25;4996878;28;20061;-76
2022/01/06 03:04:20;;;;;;;34.60;29.83;;;;;;;6.55;81.89;99590.91;4997651;28;20230;-73
2022/01/06 03:06:45;;;;;;;38.63;30.63;;;;;;;6.62;81.93;99593.50;4997139;28;21035;-75
2022/01/06 03:09:11;;;;;;;45.70;29.40;;;;;;;6.37;81.83;99585.63;4998033;28;20045;-75
2022/01/06 03:11:41;;;;;;;36.17;28.27;;;;;;;6.46;81.33;99588.25;4997077;28;20028;-75
2022/01/06 03:14:07;;;;;;;38.22;29.42;;;;;;;6.52;81.28;99590.84;4996021;28;20112;-73
2022/01/06 03:16:33;;;;;;;38.15;30.17;;;;;;;6.65;81.01;99615.25;4991134;28;20038;-75
2022/01/06 03:18:58;;;;;;;37.08;28.33;;;;;;;6.67;81.38;99610.00;4997955;28;20052;-73
2022/01/06 03:21:23;;;;;;;39.63;31.63;;;;;;;6.82;80.74;99617.88;4993789;28;20054;-74
2022/01/06 03:23:49;;;;;;;42.05;31.90;;;;;;;6.62;80.39;99609.13;4998285;28;20037;-72
2022/01/06 03:26:14;;;;;;;36.28;29.73;;;;;;;6.60;80.58;99603.91;4998345;28;20501;-73
2022/01/06 03:28:40;;;;;;;42.63;31.40;;;;;;;6.55;80.53;99603.94;4997873;28;20462;-74
2022/01/06 03:31:05;;;;;;;42.22;32.30;;;;;;;6.54;81.01;99615.19;4995483;28;20081;-73
2022/01/06 03:33:31;;;;;;;40.97;30.55;;;;;;;6.46;80.78;99626.44;4995933;28;20108;-74
2022/01/06 03:35:56;;;;;;;40.03;31.58;;;;;;;6.34;81.66;99609.03;4998442;28;20042;-73
2022/01/06 03:38:22;;;;;;;35.22;30.15;;;;;;;6.41;81.10;99609.94;4997043;28;20450;-74
2022/01/06 03:40:47;;;;;;;40.58;29.67;;;;;;;6.13;81.63;99620.22;4996051;28;20050;-73
2022/01/06 03:43:12;;;;;;;48.40;33.72;;;;;;;6.18;81.24;99605.50;4996216;28;20054;-74
2022/01/06 03:45:38;;;;;;;41.60;30.50;;;;;;;6.39;80.76;99622.97;5001520;28;20042;-76
2022/01/06 03:48:04;;;;;;;40.00;31.15;;;;;;;6.21;81.51;99615.06;5002363;28;20083;-73
2022/01/06 03:50:30;;;;;;;42.60;30.65;;;;;;;6.40;81.16;99645.56;5001462;28;20511;-77
2022/01/06 03:52:55;;;;;;;36.38;30.88;;;;;;;6.05;81.00;99625.41;4998476;28;20053;-75
2022/01/06 03:55:21;;;;;;;35.65;28.80;;;;;;;5.94;81.39;99627.06;5001482;28;20109;-74
2022/01/06 03:57:47;;;;;;;41.10;31.42;;;;;;;6.18;81.50;99647.19;5000035;28;20041;-76
2022/01/06 04:00:18;;;;;;;44.53;32.83;;;;;;;5.90;82.42;99652.19;4999308;28;20073;-73
2022/01/06 04:02:46;;;;;;;44.03;30.98;;;;;;;6.22;82.00;99659.34;5000503;28;20096;-74
2022/01/06 04:05:12;;;;;;;41.10;34.00;;;;;;;6.30;81.74;99656.81;5000628;28;20045;-74
2022/01/06 04:07:39;;;;;;;44.25;33.40;;;;;;;6.29;82.27;99650.69;5000469;28;20054;-73
2022/01/06 04:10:06;;;;;;;44.65;30.88;;;;;;;6.44;81.56;99655.13;5000560;28;20135;-74
2022/01/06 04:12:36;;;;;;;40.35;31.02;;;;;;;6.52;81.37;99658.63;5001155;28;20148;-77
2022/01/06 04:15:09;;;;;;;43.60;32.42;;;;;;;6.46;81.36;99642.97;5000627;28;20034;-74
2022/01/06 04:17:35;;;;;;;44.10;32.28;;;;;;;6.46;81.36;99645.59;4997540;28;20038;-74
2022/01/06 04:20:01;;;;;;;45.72;31.30;;;;;;;6.66;81.01;99657.81;4999951;28;20145;-73
2022/01/06 04:22:26;;;;;;;54.25;35.65;;;;;;;6.55;81.12;99668.19;4999605;28;20053;-76
2022/01/06 04:24:51;;;;;;;42.33;33.13;;;;;;;6.54;81.11;99653.44;4999766;28;20053;-78
2022/01/06 04:27:17;;;;;;;39.95;32.55;;;;;;;6.49;81.10;99647.34;5001055;28;20050;-83
2022/01/06 04:29:42;;;;;;;42.72;32.95;;;;;;;6.59;80.70;99648.22;4999866;28;20044;-79
2022/01/06 04:32:08;;;;;;;44.97;33.35;;;;;;;6.65;80.86;99656.06;5001403;28;20050;-79
2022/01/06 04:34:34;;;;;;;36.50;29.88;;;;;;;6.42;80.91;99653.38;4999468;28;20038;-75
2022/01/06 04:37:00;;;;;;;44.58;30.58;;;;;;;6.45;81.26;99648.19;5000666;28;20477;-75
2022/01/06 04:39:26;;;;;;;44.22;30.80;;;;;;;6.71;80.47;99674.34;4997484;28;20050;-75
2022/01/06 04:41:51;;;;;;;39.20;28.95;;;;;;;6.83;80.01;99650.91;5000863;28;20512;-77
2022/01/06 04:44:17;;;;;;;35.10;30.67;;;;;;;6.58;80.51;99673.44;4999619;28;20050;-82
2022/01/06 04:46:43;;;;;;;36.75;30.38;;;;;;;6.76;80.45;99670.88;4997603;28;20434;-75
2022/01/06 04:49:09;;;;;;;37.40;30.13;;;;;;;6.77;80.23;99663.94;5000539;28;20052;-77
2022/01/06 04:51:34;;;;;;;41.05;30.35;;;;;;;6.67;79.92;99647.41;4999964;28;20128;-75
2022/01/06 04:54:00;;;;;;;45.05;30.02;;;;;;;6.75;80.03;99656.09;5000945;28;20053;-74
2022/01/06 04:56:25;;;;;;;37.10;29.35;;;;;;;6.92;79.37;99650.06;5000653;28;20351;-75
2022/01/06 04:58:51;;;;;;;38.10;28.50;;;;;;;6.92;78.99;99644.84;4999594;28;20066;-77
2022/01/06 05:01:17;;;;;;;39.45;28.05;;;;;;;6.85;79.14;99646.56;5000288;28;20440;-76
2022/01/06 05:03:43;;;;;;;37.05;28.95;;;;;;;6.93;78.88;99642.25;4998221;28;20133;-82
2022/01/06 05:06:08;;;;;;;38.67;29.80;;;;;;;7.10;78.81;99673.59;4996541;28;20037;-75
2022/01/06 05:10:55;;;;;;;30.52;24.20;;;;;;;7.14;78.26;99679.66;5035223;28;20619;-84
2022/01/06 05:13:21;;;;;;;37.33;26.50;;;;;;;7.26;77.83;99682.31;5034099;28;20056;-79
2022/01/06 05:15:47;;;;;;;32.38;24.15;;;;;;;7.33;77.07;99655.38;5032578;28;20057;-76
2022/01/06 05:18:13;;;;;;;31.15;24.98;;;;;;;7.55;76.38;99671.88;5030810;28;20056;-81
2022/01/06 05:20:42;;;;;;;33.92;23.33;;;;;;;7.30;76.93;99680.56;5035332;28;20086;-82
2022/01/06 05:23:08;;;;;;;30.55;24.10;;;;;;;7.61;76.26;99673.66;5030687;28;20461;-75
2022/01/06 05:25:34;;;;;;;30.42;23.80;;;;;;;7.61;76.46;99681.47;5030346;28;20049;-76
2022/01/06 05:27:59;;;;;;;32.05;25.40;;;;;;;7.59;76.67;99678.88;5034464;28;20072;-75
2022/01/06 05:30:25;;;;;;;28.35;24.33;;;;;;;7.52;76.30;99661.47;5032173;28;20053;-77
2022/01/06 05:32:51;;;;;;;30.95;24.25;;;;;;;7.65;76.17;99682.34;5030914;28;20464;-75
2022/01/06 05:35:16;;;;;;;32.92;24.35;;;;;;;7.61;75.83;99664.06;5031344;28;20051;-75
2022/01/06 05:37:42;;;;;;;31.42;24.67;;;;;;;7.63;76.14;99677.09;5034649;28;20098;-76
2022/01/06 05:40:08;;;;;;;31.67;23.73;;;;;;;7.61;76.04;99656.25;5034994;28;20397;-76
2022/01/06 05:42:33;;;;;;;36.55;23.60;;;;;;;7.54;75.79;99662.34;5035006;28;20184;-75
2022/01/06 05:44:59;;;;;;;27.25;21.58;;;;;;;7.54;76.09;99672.78;5030523;28;20029;-83
2022/01/06 05:47:24;;;;;;;30.80;20.50;;;;;;;7.72;75.74;99684.06;5033814;28;20444;-80
2022/01/06 05:49:50;;;;;;;27.83;21.67;;;;;;;7.74;75.70;99687.56;5031100;28;20128;-75
2022/01/06 05:52:15;;;;;;;30.25;24.50;;;;;;;7.82;75.60;99688.44;5028604;28;20049;-75
2022/01/06 05:54:40;;;;;;;35.45;26.92;;;;;;;7.70;75.78;99684.09;5031606;28;20044;-76
2022/01/06 05:57:09;;;;;;;46.95;37.70;;;;;;;7.69;76.24;99690.16;5034397;28;20087;-76
2022/01/06 05:59:34;;;;;;;31.48;21.50;;;;;;;7.68;76.11;99695.38;5031919;28;20033;-76
2022/01/06 06:02:00;;;;;;;28.85;22.88;;;;;;;7.66;76.10;99700.63;5029956;28;20381;-79
2022/01/06 06:04:26;;;;;;;34.20;22.90;;;;;;;7.67;75.79;99680.59;5034721;28;20461;-76
2022/01/06 06:06:51;;;;;;;24.95;20.70;;;;;;;7.80;75.62;99695.41;5035014;28;20397;-76
2022/01/06 06:09:17;;;;;;;30.88;23.02;;;;;;;7.75;75.77;99694.50;5035593;28;20155;-75
2022/01/06 06:11:43;;;;;;;29.15;22.00;;;;;;;7.76;75.75;99702.34;5035031;28;20036;-75
2022/01/06 06:14:08;;;;;;;26.05;21.80;;;;;;;7.75;75.91;99705.84;5034549;28;20063;-75
2022/01/06 06:16:34;;;;;;;32.50;22.85;;;;;;;7.69;75.78;99684.94;5027818;28;20048;-78
2022/01/06 06:18:59;;;;;;;30.65;24.13;;;;;;;7.88;75.36;99690.16;5030189;28;21325;-76
2022/01/06 06:21:25;;;;;;;27.70;23.23;;;;;;;7.76;75.70;99691.03;5022880;28;20099;-74
2022/01/06 06:23:51;;;;;;;28.65;22.30;;;;;;;8.02;75.05;99701.47;5016633;28;20112;-75
2022/01/06 06:26:16;;;;;;;27.70;23.10;;;;;;;7.99;75.08;99704.09;5017893;28;20108;-77
2022/01/06 06:28:42;;;;;;;36.60;21.42;;;;;;;8.13;74.98;99714.53;5019165;28;20370;-75
2022/01/06 06:31:07;;;;;;;32.17;21.55;;;;;;;8.12;74.70;99702.31;5020807;28;20136;-76
2022/01/06 06:33:33;;;;;;;31.30;21.63;;;;;;;8.04;75.04;99710.19;5020589;28;20042;-75
2022/01/06 06:35:58;;;;;;;32.28;23.88;;;;;;;7.97;74.90;99705.84;5017552;28;20014;-78
2022/01/06 06:38:24;;;;;;;31.45;22.10;;;;;;;8.10;75.10;99728.47;5020415;28;20032;-76
2022/01/06 06:40:49;;;;;;;27.55;21.42;;;;;;;8.00;74.95;99705.81;5019952;28;20481;-76
2022/01/06 06:43:15;;;;;;;24.65;20.42;;;;;;;8.14;75.11;99731.94;5018906;28;20076;-71
2022/01/06 06:45:41;;;;;;;29.65;21.88;;;;;;;8.00;75.04;99721.50;5018648;28;20160;-71
2022/01/06 06:48:07;;;;;;;27.73;22.80;;;;;;;8.09;75.12;99728.47;5000286;28;20049;-83
2022/01/06 06:50:33;;;;;;;30.80;22.55;;;;;;;8.17;74.99;99737.16;5019551;28;20025;-77
2022/01/06 06:52:59;;;;;;;26.38;22.33;;;;;;;8.13;74.86;99715.41;5017453;28;20046;-73
2022/01/06 06:55:24;;;;;;;29.48;24.20;;;;;;;8.18;75.26;99736.28;5021246;28;20042;-74
2022/01/06 06:57:50;;;;;;;29.63;23.35;;;;;;;8.19;75.17;99743.25;5021346;28;20489;-72
2022/01/06 07:00:16;;;;;;;35.20;25.50;;;;;;;8.35;74.55;99739.75;5019299;28;20385;-74
2022/01/06 07:02:42;;;;;;;41.50;25.10;;;;;;;8.39;74.69;99738.00;5021726;28;20025;-73
2022/01/06 07:05:08;;;;;;;29.58;22.85;;;;;;;8.31;74.96;99732.81;5018175;28;20037;-72
2022/01/06 07:07:34;;;;;;;32.35;24.05;;;;;;;8.32;74.57;99736.28;5020325;28;20045;-73
2022/01/06 07:09:59;;;;;;;32.20;25.52;;;;;;;8.36;74.51;99741.50;5020953;28;20470;-73
2022/01/06 07:12:25;;;;;;;43.08;26.48;;;;;;;8.44;74.43;99757.19;5019267;28;20054;-74
2022/01/06 07:14:50;;;;;;;37.78;27.42;;;;;;;8.34;74.31;99765.91;5017818;28;20033;-74
2022/01/06 07:17:16;;;;;;;35.15;24.27;;;;;;;8.30;74.05;99756.31;5012803;28;20106;-73
2022/01/06 07:19:41;;;;;;;38.08;26.95;;;;;;;8.44;73.75;99755.44;5015472;28;20556;-78
2022/01/06 07:22:07;;;;;;;34.42;28.15;;;;;;;8.36;73.98;99766.78;5017304;28;20049;-75
2022/01/06 07:24:32;;;;;;;35.25;27.38;;;;;;;8.47;74.02;99759.78;5015987;28;20033;-75
2022/01/06 07:26:58;;;;;;;33.42;26.80;;;;;;;8.44;74.66;99767.66;5016000;28;20124;-75
2022/01/06 07:29:23;;;;;;;32.15;25.55;;;;;;;8.23;74.52;99758.94;5015813;28;20545;-82
2022/01/06 07:31:49;;;;;;;38.15;26.80;;;;;;;8.44;74.27;99781.59;5016226;28;20049;-77
2022/01/06 07:34:14;;;;;;;34.05;25.70;;;;;;;8.49;73.90;99778.97;5015848;28;20041;-74
2022/01/06 07:36:40;;;;;;;30.80;25.55;;;;;;;8.66;73.84;99777.19;5018051;28;22989;-81
2022/01/06 07:39:05;;;;;;;38.42;27.92;;;;;;;8.71;73.11;99764.13;5015943;28;20060;-73
2022/01/06 07:41:31;;;;;;;33.75;26.33;;;;;;;8.76;72.89;99762.34;5018686;28;20040;-73
2022/01/06 07:43:57;;;;;;;35.00;27.88;;;;;;;8.69;72.60;99759.75;5016893;28;20040;-74
2022/01/06 07:46:22;;;;;;;35.65;27.90;;;;;;;8.87;72.28;99757.06;5015647;28;20613;-74
2022/01/06 07:48:57;;;;;;;39.88;29.20;;;;;;;9.12;71.25;99775.28;5014207;28;20643;-76
2022/01/06 07:51:27;;;;;;;31.77;28.17;;;;;;;8.82;71.35;99761.44;5015299;28;20358;-75
2022/01/06 07:53:54;;;;;;;41.78;30.55;;;;;;;9.09;70.58;99782.28;5016020;28;20112;-75
2022/01/06 07:56:20;;;;;;;30.20;25.00;;;;;;;8.92;70.53;99757.94;5017082;28;20120;-75
2022/01/06 07:58:46;;;;;;;36.80;28.33;;;;;;;9.01;70.05;99770.09;5014735;28;20098;-75
2022/01/06 08:01:13;;;;;;;36.85;27.65;;;;;;;9.19;69.67;99774.38;5017024;28;20126;-76
2022/01/06 08:03:39;;;;;;;32.80;27.77;;;;;;;9.30;69.28;99777.81;5018151;28;20045;-76
2022/01/06 08:06:05;;;;;;;33.60;26.00;;;;;;;9.33;68.61;99758.59;5015085;28;20044;-76
2022/01/06 08:08:31;;;;;;;35.28;27.02;;;;;;;9.55;68.35;99782.91;5017646;28;20037;-77
2022/01/06 08:10:56;;;;;;;31.70;25.67;;;;;;;9.44;68.04;99770.75;5014774;28;20501;-76
2022/01/06 08:13:22;;;;;;;33.30;27.73;;;;;;;9.44;68.11;99786.47;5014681;28;20041;-75
2022/01/06 08:15:47;;;;;;;36.85;29.23;;;;;;;9.59;68.12;99789.88;5015134;28;20049;-75
2022/01/06 08:18:13;;;;;;;40.42;30.00;;;;;;;9.89;67.60;99799.28;5011343;28;20044;-75
2022/01/06 08:20:38;;;;;;;35.97;28.02;;;;;;;10.00;67.50;99794.84;5016183;28;20072;-74
2022/01/06 08:23:22;;;;;;;33.45;27.10;;;;;;;10.05;66.74;99805.28;4996619;28;20124;-76
2022/01/06 08:25:48;;;;;;;32.70;27.27;;;;;;;10.08;66.47;99782.53;5010260;28;20033;-76
2022/01/06 08:28:14;;;;;;;45.33;27.63;;;;;;;10.20;66.33;99788.56;5018402;28;20046;-74
2022/01/06 08:30:40;;;;;;;34.78;27.33;;;;;;;10.42;66.62;99802.38;5016210;28;20056;-75
2022/01/06 08:33:05;;;;;;;29.30;24.60;;;;;;;10.60;65.62;99810.06;5012434;28;20022;-76
2022/01/06 08:35:31;;;;;;;27.27;24.20;;;;;;;10.50;64.52;99787.44;5045414;28;20135;-74
2022/01/06 08:37:56;;;;;;;31.02;24.35;;;;;;;10.69;64.75;99801.25;5019338;28;20460;-75
2022/01/06 08:40:22;;;;;;;38.60;24.83;;;;;;;10.37;64.63;99788.44;5017078;28;20568;-76
2022/01/06 08:42:48;;;;;;;32.90;22.58;;;;;;;10.58;64.30;99806.59;5015571;28;20064;-81
2022/01/06 08:45:16;;;;;;;31.65;22.52;;;;;;;10.59;64.13;99779.47;5011949;28;20041;-76
2022/01/06 08:47:43;;;;;;;32.30;22.98;;;;;;;10.73;63.58;99789.84;5016180;28;20029;-75
2022/01/06 08:50:09;;;;;;;28.88;22.17;;;;;;;11.03;63.96;99804.38;5013598;28;20073;-79
2022/01/06 08:52:36;;;;;;;34.63;20.92;;;;;;;11.10;63.38;99807.81;5015849;28;20984;-76
2022/01/06 08:55:03;;;;;;;28.80;22.33;;;;;;;11.22;62.54;99796.28;5014340;28;20036;-75
2022/01/06 08:57:29;;;;;;;25.77;20.77;;;;;;;11.33;62.94;99800.50;5016192;28;20037;-74
2022/01/06 08:59:54;;;;;;;25.80;21.00;;;;;;;11.22;62.03;99783.16;5013577;28;20046;-74
2022/01/06 09:02:20;;;;;;;28.25;20.00;;;;;;;11.47;61.73;99781.03;5015580;28;20452;-78
2022/01/06 09:04:46;;;;;;;31.08;21.77;;;;;;;11.77;61.75;99796.38;5016068;28;20107;-75
2022/01/06 09:07:11;;;;;;;31.00;22.65;;;;;;;11.73;61.67;99783.28;5017671;28;20385;-74
2022/01/06 09:09:39;;;;;;;28.92;21.90;;;;;;;11.78;60.53;99786.75;5015092;28;20073;-76
2022/01/06 09:12:06;;;;;;;24.02;19.83;;;;;;;11.92;60.37;99774.28;5017084;28;20045;-76
2022/01/06 09:14:32;;;;;;;25.20;19.65;;;;;;;12.17;60.33;99794.91;5018929;28;20025;-75
2022/01/06 09:16:58;;;;;;;37.58;19.52;;;;;;;12.07;59.61;99783.69;5011734;28;20061;-75
2022/01/06 09:19:23;;;;;;;29.60;19.50;;;;;;;12.27;59.07;99778.09;5012517;28;21794;-76
2022/01/06 09:21:49;;;;;;;26.70;19.17;;;;;;;12.52;59.35;99796.94;5015349;28;20048;-76
2022/01/06 09:24:15;;;;;;;22.33;19.48;;;;;;;12.38;59.18;99805.06;5015954;28;20545;-76
2022/01/06 09:26:40;;;;;;;20.58;18.13;;;;;;;12.32;59.19;99792.03;5016483;28;20041;-75
2022/01/06 09:29:09;;;;;;;26.63;17.88;;;;;;;12.54;59.24;99797.78;5014998;28;20081;-80
2022/01/06 09:31:36;;;;;;;23.50;18.65;;;;;;;12.42;58.78;99798.00;5013254;28;20054;-74
2022/01/06 09:34:02;;;;;;;22.85;18.48;;;;;;;12.54;58.39;99807.44;5016503;28;20067;-74
2022/01/06 09:36:28;;;;;;;29.35;19.60;;;;;;;12.72;58.23;99796.56;5013845;28;20041;-74
2022/01/06 09:38:55;;;;;;;24.10;18.00;;;;;;;12.84;57.41;99777.03;5015640;28;20477;-75
2022/01/06 09:41:22;;;;;;;22.27;17.25;;;;;;;13.02;56.96;99783.72;5014589;28;20112;-74
2022/01/06 09:43:51;;;;;;;22.25;16.15;;;;;;;13.01;56.56;99800.41;5015244;28;20362;-86
2022/01/06 09:46:18;;;;;;;20.73;15.60;;;;;;;12.97;56.59;99794.34;5014870;28;20057;-73
2022/01/06 09:48:45;;;;;;;22.73;14.63;;;;;;;12.93;56.58;99804.97;5017474;28;20100;-73
2022/01/06 09:51:10;;;;;;;32.45;15.15;;;;;;;13.14;55.59;99808.94;5016605;28;20083;-74
2022/01/06 09:53:36;;;;;;;19.08;15.20;;;;;;;13.30;55.15;99813.91;5015445;28;20084;-75
2022/01/06 09:56:02;;;;;;;23.90;12.70;;;;;;;13.41;55.07;99786.44;5017698;28;20110;-75
2022/01/06 09:58:28;;;;;;;18.95;13.50;;;;;;;13.46;55.27;99801.28;5019343;28;20041;-75
2022/01/06 10:00:56;;;;;;;24.35;17.38;;;;;;;13.67;54.43;99817.50;5019122;28;20104;-76
2022/01/06 10:03:38;;;;;;;27.67;16.92;;;;;;;13.67;54.72;99794.66;5019273;28;20041;-73
2022/01/06 10:06:16;;;;;;;28.60;24.42;;;;;;;13.88;54.96;99790.66;5017687;28;20026;-72
2022/01/06 10:08:47;;;;;;;19.88;15.82;;;;;;;14.03;54.81;99810.50;5021420;28;20033;-74
2022/01/06 10:11:15;;;;;;;19.55;15.85;;;;;;;13.58;55.21;99786.06;5018658;28;20049;-72
2022/01/06 10:13:45;;;;;;;18.13;13.77;;;;;;;14.04;54.46;99787.63;5020775;28;20053;-72
2022/01/06 10:16:16;;;;;;;21.40;15.93;;;;;;;13.94;54.14;99779.94;5018893;28;20132;-72
2022/01/06 10:18:54;;;;;;;25.45;16.13;;;;;;;13.94;53.76;99802.81;5017679;28;20064;-75
2022/01/06 10:21:19;;;;;;;20.05;14.00;;;;;;;13.90;54.19;99807.28;5016888;28;20553;-75
2022/01/06 10:23:56;;;;;;;15.95;13.13;;;;;;;14.04;53.73;99804.31;5019839;28;20124;-75
2022/01/06 10:26:22;;;;;;;19.48;14.02;;;;;;;14.13;53.94;99792.69;5017358;28;20081;-75
2022/01/06 10:28:51;;;;;;;17.70;14.73;;;;;;;14.33;53.32;99808.91;5017942;28;20489;-74
2022/01/06 10:31:18;;;;;;;24.48;14.85;;;;;;;14.14;53.39;99781.22;5017564;28;20556;-73
2022/01/06 10:33:44;;;;;;;18.80;14.63;;;;;;;14.32;53.33;99785.19;5017517;28;20377;-76
2022/01/06 10:36:10;;;;;;;16.98;12.73;;;;;;;14.32;52.26;99782.53;5020744;28;20045;-74
2022/01/06 10:38:36;;;;;;;19.05;13.68;;;;;;;14.66;51.86;99798.41;5019615;28;20099;-75
2022/01/06 10:41:13;;;;;;;15.27;12.73;;;;;;;14.80;51.37;99800.69;5016131;28;20140;-74
2022/01/06 10:45:08;;;;;;;21.30;12.25;;;;;;;14.93;50.67;99788.00;5048315;28;20134;-73
2022/01/06 10:47:35;;;;;;;18.65;10.25;;;;;;;14.70;50.52;99786.88;5016690;28;20073;-73
2022/01/06 10:50:16;;;;;;;13.15;11.23;;;;;;;14.96;49.86;99770.28;5014782;28;20073;-74
2022/01/06 10:53:06;;;;;;;13.38;10.32;;;;;;;15.33;49.46;99789.47;5013756;28;20087;-74
2022/01/06 10:55:35;;;;;;;13.82;9.68;;;;;;;15.19;49.34;99766.09;5013417;28;20131;-74
2022/01/06 10:58:04;;;;;;;22.23;10.90;;;;;;;15.45;49.20;99762.66;5012075;28;20436;-77
2022/01/06 11:00:35;;;;;;;14.77;9.52;;;;;;;15.28;48.14;99762.31;5015621;28;20041;-75
2022/01/06 11:03:21;;;;;;;14.00;9.07;;;;;;;15.32;48.08;99775.41;5013186;28;20025;-75
2022/01/06 11:05:58;;;;;;;12.00;9.43;;;;;;;15.45;47.46;99777.66;5016504;28;20042;-73
2022/01/06 11:08:29;;;;;;;13.65;10.10;;;;;;;15.73;48.06;99768.03;5015070;28;20441;-79
2022/01/06 11:13:44;;;;;;;16.85;9.55;;;;;;;15.79;47.10;99765.16;5013671;28;20132;-74
2022/01/06 11:16:14;;;;;;;13.55;10.10;;;;;;;15.66;47.38;99769.06;5015389;28;20132;-72
2022/01/06 11:18:43;;;;;;;14.50;9.20;;;;;;;16.02;47.96;99771.50;5012059;28;20049;-72
2022/01/06 11:21:13;;;;;;;17.35;10.27;;;;;;;16.08;47.21;99773.06;5012985;28;20125;-76
2022/01/06 11:23:39;;;;;;;14.05;11.25;;;;;;;15.74;48.04;99777.69;5013082;28;20037;-73
2022/01/06 11:26:15;;;;;;;19.40;9.93;;;;;;;15.65;48.01;99766.50;5012398;28;20048;-72
2022/01/06 11:28:42;;;;;;;23.20;11.85;;;;;;;15.67;48.73;99770.81;5014347;28;20135;-74
2022/01/06 11:31:22;;;;;;;17.90;11.35;;;;;;;15.26;49.48;99751.78;5014678;28;20496;-74
2022/01/06 11:33:50;;;;;;;19.73;11.63;;;;;;;15.52;48.93;99768.63;5013468;28;20471;-74
2022/01/06 11:36:31;;;;;;;17.15;11.13;;;;;;;15.33;47.87;99766.53;5012933;28;20037;-81